createdAt,value
2022-12-15T00:02:07.262Z,27.13
2022-12-15T00:04:57.462Z,28.80
2022-12-15T00:07:47.789Z,28.95
2022-12-15T00:10:38.715Z,30.88
2022-12-15T00:13:31.117Z,29.08
2022-12-15T00:16:21.481Z,28.08
2022-12-15T00:19:11.921Z,29.00
2022-12-15T00:22:01.783Z,29.38
2022-12-15T00:24:54.145Z,27.55
2022-12-15T00:27:44.216Z,28.30
2022-12-15T00:30:34.407Z,27.63
2022-12-15T00:33:31.048Z,26.52
2022-12-15T00:36:21.649Z,29.38
2022-12-15T00:38:53.172Z,28.05
2022-12-15T00:41:24.716Z,27.70
2022-12-15T00:43:56.269Z,28.38
2022-12-15T00:46:46.658Z,28.40
2022-12-15T00:49:47.680Z,30.10
2022-12-15T00:52:37.930Z,27.88
2022-12-15T00:55:28.116Z,29.90
2022-12-15T00:58:18.444Z,30.02
2022-12-15T01:01:08.701Z,27.27
2022-12-15T01:03:58.953Z,29.05
2022-12-15T01:06:49.186Z,29.83
2022-12-15T01:09:39.116Z,29.08
2022-12-15T01:12:29.293Z,28.63
2022-12-15T01:15:19.242Z,28.27
2022-12-15T01:18:09.100Z,29.25
2022-12-15T01:20:40.680Z,28.42
2022-12-15T01:23:12.236Z,29.30
2022-12-15T01:25:45.816Z,29.92
2022-12-15T01:28:22.298Z,29.20
2022-12-15T01:30:53.915Z,29.50
2022-12-15T01:33:25.481Z,28.85
2022-12-15T01:35:59.172Z,29.25
2022-12-15T01:38:30.821Z,28.88
2022-12-15T01:41:05.993Z,29.52
2022-12-15T01:43:40.167Z,29.25
2022-12-15T01:46:18.219Z,23.10
2022-12-15T01:49:00.134Z,28.48
2022-12-15T01:51:39.407Z,29.23
2022-12-15T01:54:19.826Z,28.33
2022-12-15T01:56:56.950Z,30.17
2022-12-15T01:59:39.032Z,29.38
2022-12-15T02:02:12.457Z,29.85
2022-12-15T02:04:45.629Z,32.15
2022-12-15T02:07:18.355Z,29.95
2022-12-15T02:09:52.314Z,31.23
2022-12-15T02:12:45.810Z,31.13
2022-12-15T02:15:32.333Z,30.05
2022-12-15T02:18:32.448Z,29.38
2022-12-15T02:21:42.517Z,30.10
2022-12-15T02:24:35.053Z,30.33
2022-12-15T02:27:15.865Z,30.30
2022-12-15T02:30:10.089Z,31.02
2022-12-15T02:32:54.594Z,30.15
2022-12-15T02:35:44.818Z,30.75
2022-12-15T02:38:28.558Z,30.27
2022-12-15T02:41:02.228Z,29.38
2022-12-15T02:43:38.853Z,30.77
2022-12-15T02:46:35.426Z,29.70
2022-12-15T02:49:17.996Z,30.90
2022-12-15T02:51:52.574Z,28.15
2022-12-15T02:54:54.817Z,31.50
2022-12-15T02:57:44.333Z,29.83
2022-12-15T03:00:17.652Z,31.70
2022-12-15T03:02:53.593Z,29.17
2022-12-15T03:05:25.896Z,30.30
2022-12-15T03:07:57.873Z,31.35
2022-12-15T03:10:29.564Z,31.35
2022-12-15T03:13:01.120Z,32.88
2022-12-15T03:15:35.466Z,31.17
2022-12-15T03:20:40.093Z,31.58
2022-12-15T03:23:11.775Z,30.52
2022-12-15T03:25:46.525Z,30.58
2022-12-15T03:28:21.863Z,31.40
2022-12-15T03:30:53.383Z,30.27
2022-12-15T03:33:25.085Z,32.05
2022-12-15T03:35:56.736Z,31.45
2022-12-15T03:38:28.368Z,30.73
2022-12-15T03:40:59.882Z,30.92
2022-12-15T03:43:31.823Z,31.35
2022-12-15T03:46:03.824Z,30.98
2022-12-15T03:48:35.456Z,31.23
2022-12-15T03:51:07.092Z,31.27
2022-12-15T03:53:38.684Z,31.92
2022-12-15T03:56:10.315Z,30.50
2022-12-15T03:58:41.871Z,30.55
2022-12-15T04:01:26.350Z,29.40
2022-12-15T04:04:01.294Z,23.30
2022-12-15T04:06:33.277Z,29.77
2022-12-15T04:09:04.913Z,31.23
2022-12-15T04:11:36.476Z,30.38
2022-12-15T04:14:09.396Z,30.38
2022-12-15T04:16:40.992Z,28.48
2022-12-15T04:19:31.219Z,30.02
2022-12-15T04:22:03.658Z,30.33
2022-12-15T04:24:53.874Z,30.55
2022-12-15T04:27:44.176Z,29.80
2022-12-15T04:30:35.003Z,28.80
2022-12-15T04:33:30.637Z,29.95
2022-12-15T04:36:21.669Z,29.67
2022-12-15T04:39:11.792Z,27.27
2022-12-15T04:42:02.030Z,29.90
2022-12-15T04:44:51.971Z,30.38
2022-12-15T04:47:42.079Z,27.40
2022-12-15T04:50:32.627Z,29.48
2022-12-15T04:53:31.808Z,26.95
2022-12-15T04:56:28.852Z,29.00
2022-12-15T04:59:19.322Z,28.92
2022-12-15T05:02:10.055Z,29.65
2022-12-15T05:05:00.338Z,29.85
2022-12-15T05:07:50.482Z,29.60
2022-12-15T05:10:40.735Z,28.58
2022-12-15T05:13:31.254Z,29.25
2022-12-15T05:16:23.862Z,27.40
2022-12-15T05:19:14.276Z,28.88
2022-12-15T05:22:04.499Z,29.52
2022-12-15T05:24:54.830Z,29.25
2022-12-15T05:27:44.740Z,28.17
2022-12-15T05:30:35.446Z,28.83
2022-12-15T05:33:07.073Z,29.02
2022-12-15T05:35:38.894Z,30.23
2022-12-15T05:38:10.603Z,28.95
2022-12-15T05:40:42.623Z,28.70
2022-12-15T05:43:14.223Z,26.10
2022-12-15T05:45:45.792Z,29.95
2022-12-15T05:48:17.568Z,25.05
2022-12-15T05:50:50.599Z,27.85
2022-12-15T05:53:22.277Z,26.95
2022-12-15T05:56:01.433Z,28.30
2022-12-15T05:58:33.172Z,26.65
2022-12-15T06:01:04.770Z,28.77
2022-12-15T06:03:36.388Z,27.05
2022-12-15T06:06:09.345Z,29.27
2022-12-15T06:08:42.469Z,28.80
2022-12-15T06:11:16.482Z,28.23
2022-12-15T06:13:48.745Z,21.33
2022-12-15T06:16:21.942Z,27.70
2022-12-15T06:18:57.185Z,27.85
2022-12-15T06:21:31.707Z,29.58
2022-12-15T06:24:07.348Z,29.70
2022-12-15T06:26:43.317Z,27.48
2022-12-15T06:31:47.535Z,28.52
2022-12-15T06:34:19.226Z,27.98
2022-12-15T06:36:50.886Z,29.30
2022-12-15T06:39:22.454Z,28.63
2022-12-15T06:41:54.036Z,30.15
2022-12-15T06:44:28.562Z,27.65
2022-12-15T06:47:00.252Z,27.95
2022-12-15T06:49:32.052Z,27.63
2022-12-15T06:52:03.680Z,28.45
2022-12-15T06:54:35.245Z,28.42
2022-12-15T06:57:06.819Z,29.08
2022-12-15T06:59:39.212Z,28.67
2022-12-15T07:02:16.928Z,28.02
2022-12-15T07:04:48.663Z,28.73
2022-12-15T07:07:20.582Z,26.80
2022-12-15T07:09:52.154Z,29.50
2022-12-15T07:12:23.742Z,26.63
2022-12-15T07:14:55.310Z,27.73
2022-12-15T07:17:26.991Z,27.95
2022-12-15T07:19:58.572Z,29.60
2022-12-15T07:22:33.648Z,27.85
2022-12-15T07:25:05.814Z,26.90
2022-12-15T07:27:37.484Z,27.65
2022-12-15T07:30:09.533Z,27.35
2022-12-15T07:32:41.848Z,26.52
2022-12-15T07:35:13.449Z,27.73
2022-12-15T07:37:45.306Z,28.10
2022-12-15T07:40:17.533Z,28.63
2022-12-15T07:42:49.109Z,27.15
2022-12-15T07:45:21.879Z,27.23
2022-12-15T07:47:53.589Z,28.10
2022-12-15T07:50:25.164Z,29.20
2022-12-15T07:52:58.012Z,27.02
2022-12-15T07:55:57.356Z,27.20
2022-12-15T07:58:21.202Z,26.98
2022-12-15T08:01:01.861Z,28.10
2022-12-15T08:03:34.221Z,28.42
2022-12-15T08:06:08.201Z,27.75
2022-12-15T08:08:40.568Z,28.08
2022-12-15T08:11:14.685Z,27.48
2022-12-15T08:14:03.558Z,28.02
2022-12-15T08:16:36.948Z,27.83
2022-12-15T08:19:13.165Z,29.13
2022-12-15T08:21:46.777Z,28.25
2022-12-15T08:24:19.397Z,29.85
2022-12-15T08:26:51.006Z,29.65
2022-12-15T08:29:50.315Z,29.95
2022-12-15T08:32:16.855Z,28.42
2022-12-15T08:34:49.761Z,27.42
2022-12-15T08:37:21.402Z,27.70
2022-12-15T08:39:53.109Z,29.58
2022-12-15T08:42:24.804Z,29.55
2022-12-15T08:44:56.571Z,29.10
2022-12-15T08:47:28.236Z,30.20
2022-12-15T08:49:59.996Z,28.83
2022-12-15T08:52:31.881Z,29.90
2022-12-15T08:55:03.891Z,29.85
2022-12-15T08:57:43.166Z,28.65
2022-12-15T09:00:16.093Z,28.92
2022-12-15T09:02:47.823Z,29.60
2022-12-15T09:05:19.682Z,32.00
2022-12-15T09:08:04.654Z,32.25
2022-12-15T09:10:47.654Z,30.13
2022-12-15T09:13:24.908Z,32.45
2022-12-15T09:16:13.333Z,29.98
2022-12-15T09:18:47.944Z,32.28
2022-12-15T09:21:25.197Z,32.17
2022-12-15T09:24:00.877Z,31.70
2022-12-15T09:26:34.579Z,32.40
2022-12-15T09:29:06.320Z,30.02
2022-12-15T09:31:39.006Z,32.95
2022-12-15T09:34:14.990Z,31.77
2022-12-15T09:36:46.619Z,30.40
2022-12-15T09:39:18.487Z,30.80
2022-12-15T09:41:55.049Z,31.98
2022-12-15T09:44:28.980Z,31.60
2022-12-15T09:47:22.077Z,31.10
2022-12-15T09:49:59.229Z,32.50
2022-12-15T09:52:39.672Z,31.70
2022-12-15T09:55:23.264Z,32.15
2022-12-15T09:58:14.214Z,32.47
2022-12-15T10:00:58.166Z,32.78
2022-12-15T10:03:55.646Z,32.58
2022-12-15T10:06:35.980Z,31.73
2022-12-15T10:09:21.454Z,32.40
2022-12-15T10:12:11.954Z,32.83
2022-12-15T10:14:50.140Z,31.92
2022-12-15T10:17:26.246Z,32.55
2022-12-15T10:20:13.295Z,32.25
2022-12-15T10:22:45.126Z,30.40
2022-12-15T10:28:52.293Z,28.85
2022-12-15T10:31:45.135Z,30.95
2022-12-15T10:34:43.565Z,29.80
2022-12-15T10:37:18.924Z,28.73
2022-12-15T10:39:51.312Z,30.10
2022-12-15T10:42:27.196Z,29.52
2022-12-15T10:44:59.213Z,31.50
2022-12-15T10:47:32.075Z,30.45
2022-12-15T10:50:25.091Z,30.17
2022-12-15T10:52:57.073Z,30.10
2022-12-15T10:55:36.005Z,31.92
2022-12-15T10:58:20.746Z,30.13
2022-12-15T11:01:14.972Z,28.80
2022-12-15T11:03:51.507Z,28.92
2022-12-15T11:06:33.767Z,29.20
2022-12-15T11:09:35.885Z,27.42
2022-12-15T11:12:50.721Z,28.48
2022-12-15T11:15:22.377Z,28.08
2022-12-15T11:18:02.790Z,27.30
2022-12-15T11:20:38.489Z,29.20
2022-12-15T11:23:30.470Z,26.77
2022-12-15T11:26:14.085Z,26.92
2022-12-15T11:28:56.368Z,29.35
2022-12-15T11:31:40.248Z,27.67
2022-12-15T11:34:17.819Z,36.97
2022-12-15T11:37:14.677Z,38.92
2022-12-15T11:40:15.382Z,26.58
2022-12-15T11:42:52.865Z,26.10
2022-12-15T11:45:44.659Z,26.73
2022-12-15T11:48:21.283Z,26.75
2022-12-15T11:50:59.840Z,28.83
2022-12-15T11:53:50.298Z,25.98
2022-12-15T11:56:31.328Z,27.73
2022-12-15T11:59:21.245Z,29.15
2022-12-15T12:02:02.479Z,27.60
2022-12-15T12:04:58.077Z,29.90
2022-12-15T12:07:45.314Z,28.65
2022-12-15T12:10:44.997Z,29.23
2022-12-15T12:13:50.353Z,27.88
2022-12-15T12:16:30.759Z,30.63
2022-12-15T12:19:06.447Z,31.80
2022-12-15T12:21:44.970Z,32.60
2022-12-15T12:24:26.372Z,30.40
2022-12-15T12:27:22.467Z,32.22
2022-12-15T12:30:02.689Z,30.67
2022-12-15T12:32:59.899Z,32.22
2022-12-15T12:35:47.120Z,31.65
2022-12-15T12:38:29.322Z,32.17
2022-12-15T12:41:23.491Z,31.63
2022-12-15T12:43:58.218Z,30.27
2022-12-15T12:46:39.201Z,32.20
2022-12-15T12:49:33.419Z,36.67
2022-12-15T12:52:13.717Z,37.55
2022-12-15T12:55:01.988Z,37.92
2022-12-15T12:57:36.599Z,39.13
2022-12-15T13:00:08.216Z,39.50
2022-12-15T13:03:13.423Z,39.20
2022-12-15T13:05:50.428Z,39.28
2022-12-15T13:08:45.282Z,39.25
2022-12-15T13:11:45.475Z,43.10
2022-12-15T13:14:25.907Z,39.05
2022-12-15T13:17:26.062Z,41.05
2022-12-15T13:20:01.310Z,40.33
2022-12-15T13:25:35.838Z,40.92
2022-12-15T13:28:18.708Z,40.10
2022-12-15T13:31:21.324Z,40.50
2022-12-15T13:34:01.223Z,38.65
2022-12-15T13:36:42.030Z,39.60
2022-12-15T13:39:16.301Z,38.83
2022-12-15T13:42:23.765Z,38.75
2022-12-15T13:44:51.811Z,36.95
2022-12-15T13:47:28.022Z,37.97
2022-12-15T13:50:08.540Z,37.88
2022-12-15T13:56:07.098Z,39.28
2022-12-15T13:58:47.891Z,40.22
2022-12-15T14:01:30.153Z,38.60
2022-12-15T14:04:15.621Z,39.17
2022-12-15T14:07:00.738Z,36.88
2022-12-15T14:09:41.899Z,40.33
2022-12-15T14:12:14.166Z,36.75
2022-12-15T14:17:39.334Z,38.45
2022-12-15T14:20:17.922Z,39.00
2022-12-15T14:22:52.353Z,39.28
2022-12-15T14:25:29.663Z,38.20
2022-12-15T14:28:07.761Z,35.58
2022-12-15T14:30:42.380Z,36.88
2022-12-15T14:33:18.200Z,37.03
2022-12-15T14:35:53.498Z,38.65
2022-12-15T14:38:32.095Z,36.17
2022-12-15T14:41:06.115Z,35.63
2022-12-15T14:43:40.045Z,37.17
2022-12-15T14:46:18.706Z,37.92
2022-12-15T14:49:01.010Z,37.13
2022-12-15T14:51:44.183Z,35.75
2022-12-15T14:54:38.270Z,34.55
2022-12-15T14:57:15.362Z,37.28
2022-12-15T14:59:54.448Z,37.63
2022-12-15T15:02:29.562Z,38.40
2022-12-15T15:03:03.980Z,30.48
2022-12-15T15:05:04.693Z,36.90
2022-12-15T15:07:38.701Z,37.97
2022-12-15T15:10:27.954Z,37.53
2022-12-15T15:12:59.766Z,36.60
2022-12-15T15:15:31.482Z,36.00
2022-12-15T15:18:03.124Z,38.85
2022-12-15T15:20:35.986Z,39.65
2022-12-15T15:23:07.498Z,36.33
2022-12-15T15:25:41.570Z,40.03
2022-12-15T15:28:17.979Z,43.03
2022-12-15T15:30:59.315Z,40.13
2022-12-15T15:33:31.508Z,41.38
2022-12-15T15:36:04.311Z,39.85
2022-12-15T15:38:39.547Z,41.53
2022-12-15T15:41:14.011Z,42.10
2022-12-15T15:43:46.079Z,42.55
2022-12-15T15:46:27.687Z,42.10
2022-12-15T15:49:03.068Z,44.20
2022-12-15T15:51:38.253Z,43.25
2022-12-15T15:54:25.032Z,43.20
2022-12-15T15:56:56.647Z,45.55
2022-12-15T15:59:29.015Z,44.78
2022-12-15T16:02:02.180Z,44.08
2022-12-15T16:04:36.321Z,41.65
2022-12-15T16:07:20.693Z,45.67
2022-12-15T16:09:53.435Z,34.33
2022-12-15T16:12:33.472Z,42.63
2022-12-15T16:15:23.777Z,42.75
2022-12-15T16:17:55.522Z,44.33
2022-12-15T16:20:29.179Z,47.83
2022-12-15T16:23:05.584Z,47.42
2022-12-15T16:25:48.498Z,46.10
2022-12-15T16:28:25.114Z,45.60
2022-12-15T16:30:58.794Z,44.60
2022-12-15T16:33:30.440Z,44.07
2022-12-15T16:36:02.157Z,46.55
2022-12-15T16:38:34.214Z,45.53
2022-12-15T16:41:08.276Z,44.03
2022-12-15T16:43:46.031Z,44.10
2022-12-15T16:46:20.563Z,44.15
2022-12-15T16:48:52.297Z,45.13
2022-12-15T16:51:40.189Z,46.45
2022-12-15T16:54:24.297Z,43.25
2022-12-15T16:56:58.078Z,47.58
2022-12-15T16:59:34.326Z,47.37
2022-12-15T17:02:29.088Z,45.42
2022-12-15T17:05:00.938Z,44.45
2022-12-15T17:07:32.670Z,44.97
2022-12-15T17:10:05.461Z,45.63
2022-12-15T17:12:37.244Z,46.10
2022-12-15T17:15:20.608Z,44.05
2022-12-15T17:17:53.092Z,44.38
2022-12-15T17:20:30.040Z,44.03
2022-12-15T17:23:07.170Z,42.42
2022-12-15T17:28:36.725Z,42.67
2022-12-15T17:31:18.138Z,43.53
2022-12-15T17:33:49.864Z,42.05
2022-12-15T17:36:28.325Z,42.70
2022-12-15T17:39:01.239Z,43.40
2022-12-15T17:41:58.660Z,44.92
2022-12-15T17:44:36.245Z,41.75
2022-12-15T17:47:09.077Z,44.03
2022-12-15T17:49:41.729Z,43.95
2022-12-15T17:52:28.448Z,45.25
2022-12-15T17:55:04.290Z,42.80
2022-12-15T17:57:35.870Z,42.83
2022-12-15T18:00:22.359Z,44.35
2022-12-15T18:02:55.529Z,43.90
2022-12-15T18:05:30.885Z,47.30
2022-12-15T18:08:10.638Z,44.03
2022-12-15T18:10:42.754Z,44.33
2022-12-15T18:13:14.232Z,45.17
2022-12-15T18:15:47.116Z,40.63
2022-12-15T18:18:20.845Z,40.75
2022-12-15T18:20:57.007Z,38.83
2022-12-15T18:23:32.620Z,41.50
2022-12-15T18:26:07.529Z,41.08
2022-12-15T18:28:39.171Z,40.58
2022-12-15T18:31:17.645Z,38.83
2022-12-15T18:33:50.027Z,41.90
2022-12-15T18:36:22.559Z,40.67
2022-12-15T18:38:54.159Z,42.17
2022-12-15T18:41:26.457Z,40.90
2022-12-15T18:43:58.950Z,38.13
2022-12-15T18:46:31.003Z,40.33
2022-12-15T18:49:02.762Z,35.20
2022-12-15T18:51:34.530Z,40.03
2022-12-15T18:54:15.787Z,39.92
2022-12-15T18:56:48.357Z,26.20
2022-12-15T18:59:19.950Z,39.00
2022-12-15T19:01:51.756Z,34.58
2022-12-15T19:04:23.445Z,38.75
2022-12-15T19:06:55.378Z,35.78
2022-12-15T19:09:30.375Z,36.90
2022-12-15T19:14:55.203Z,34.05
2022-12-15T19:17:45.797Z,31.65
2022-12-15T19:20:38.587Z,35.95
2022-12-15T19:23:13.185Z,38.67
2022-12-15T19:25:46.760Z,36.05
2022-12-15T19:28:21.465Z,38.40
2022-12-15T19:30:53.169Z,37.90
2022-12-15T19:33:25.133Z,39.45
2022-12-15T19:35:57.705Z,38.90
2022-12-15T19:38:34.358Z,37.60
2022-12-15T19:41:05.949Z,37.55
2022-12-15T19:43:37.604Z,38.47
2022-12-15T19:46:20.415Z,37.20
2022-12-15T19:48:54.267Z,36.90
2022-12-15T19:51:26.225Z,35.85
2022-12-15T19:53:58.305Z,33.72
2022-12-15T19:56:30.290Z,35.80
2022-12-15T19:59:02.960Z,35.55
2022-12-15T20:01:34.773Z,36.35
2022-12-15T20:04:06.483Z,36.92
2022-12-15T20:06:38.576Z,37.97
2022-12-15T20:09:18.442Z,37.42
2022-12-15T20:11:50.043Z,36.33
2022-12-15T20:14:22.359Z,35.80
2022-12-15T20:16:54.035Z,36.55
2022-12-15T20:19:25.770Z,35.83
2022-12-15T20:22:01.600Z,34.20
2022-12-15T20:24:33.596Z,33.28
2022-12-15T20:27:12.287Z,32.83
2022-12-15T20:29:43.956Z,33.30
2022-12-15T20:32:19.424Z,31.35
2022-12-15T20:34:51.028Z,31.38
2022-12-15T20:37:28.894Z,34.22
2022-12-15T20:40:00.634Z,33.35
2022-12-15T20:42:32.184Z,36.08
2022-12-15T20:45:04.188Z,34.10
2022-12-15T20:47:39.951Z,30.40
2022-12-15T20:50:25.152Z,33.63
2022-12-15T20:55:28.684Z,31.50
2022-12-15T20:58:00.298Z,33.92
2022-12-15T21:00:32.277Z,36.45
2022-12-15T21:03:16.761Z,35.03
2022-12-15T21:05:49.659Z,36.40
2022-12-15T21:08:27.484Z,35.00
2022-12-15T21:11:13.780Z,34.22
2022-12-15T21:13:47.471Z,36.13
2022-12-15T21:16:22.753Z,36.40
2022-12-15T21:19:19.296Z,34.78
2022-12-15T21:21:52.011Z,34.30
2022-12-15T21:24:25.645Z,34.80
2022-12-15T21:26:57.349Z,34.28
2022-12-15T21:29:29.515Z,35.55
2022-12-15T21:32:01.165Z,33.10
2022-12-15T21:34:32.886Z,33.90
2022-12-15T21:37:06.365Z,33.55
2022-12-15T21:39:38.009Z,33.78
2022-12-15T21:42:16.158Z,35.17
2022-12-15T21:44:48.212Z,34.08
2022-12-15T21:47:48.855Z,34.35
2022-12-15T21:50:20.403Z,37.35
2022-12-15T21:52:52.223Z,32.45
2022-12-15T21:55:26.958Z,36.42
2022-12-15T22:00:30.189Z,34.28
2022-12-15T22:03:01.924Z,33.30
2022-12-15T22:05:33.684Z,34.42
2022-12-15T22:08:20.217Z,32.17
2022-12-15T22:10:52.146Z,35.15
2022-12-15T22:13:23.789Z,32.50
2022-12-15T22:15:55.466Z,32.60
2022-12-15T22:18:27.250Z,36.72
2022-12-15T22:20:58.810Z,36.05
2022-12-15T22:23:30.382Z,34.42
2022-12-15T22:26:02.101Z,34.60
2022-12-15T22:28:34.324Z,35.25
2022-12-15T22:31:06.756Z,36.00
2022-12-15T22:33:38.406Z,36.30
2022-12-15T22:36:09.994Z,35.30
2022-12-15T22:38:41.601Z,34.60
2022-12-15T22:41:19.466Z,34.88
2022-12-15T22:43:56.259Z,36.25
2022-12-15T22:46:27.976Z,37.70
2022-12-15T22:48:59.566Z,36.72
2022-12-15T22:51:31.133Z,35.45
2022-12-15T22:54:02.741Z,34.83
2022-12-15T22:56:38.208Z,36.05
2022-12-15T22:59:16.277Z,35.03
2022-12-15T23:01:47.984Z,35.97
2022-12-15T23:04:19.650Z,33.92
2022-12-15T23:06:51.712Z,33.70
2022-12-15T23:09:23.470Z,30.92
2022-12-15T23:11:55.724Z,32.97
2022-12-15T23:14:46.433Z,33.22
2022-12-15T23:17:17.987Z,30.75
2022-12-15T23:19:49.614Z,32.08
2022-12-15T23:22:21.521Z,30.90
2022-12-15T23:24:53.051Z,31.95
2022-12-15T23:27:24.624Z,31.88
2022-12-15T23:29:56.176Z,32.45
2022-12-15T23:32:27.720Z,30.85
2022-12-15T23:34:59.290Z,33.97
2022-12-15T23:37:30.904Z,30.42
2022-12-15T23:40:02.656Z,32.72
2022-12-15T23:42:35.258Z,32.45
2022-12-15T23:45:07.549Z,29.02
2022-12-15T23:47:39.960Z,31.05
2022-12-15T23:50:11.716Z,31.67
2022-12-15T23:52:43.280Z,31.98
2022-12-15T23:55:16.987Z,30.77
2022-12-15T23:57:48.579Z,30.15
